Time;durP1;ratioP1;P1;durP2;ratioP2;P2;SDS_P1;SDS_P2;PMS_P1;PMS_P2;Temp;Humidity;BMP_temperature;BMP_pressure;BME280_temperature;BME280_humidity;BME280_pressure;Samples;Min_cycle;Max_cycle;Signal;HPM_P1;HPM_P2
2023/10/25 00:01:14;;;;;;;8.63;3.95;;;;;;;7.59;100.00;100093.38;5006212;28;20037;-70
2023/10/25 00:03:40;;;;;;;11.20;4.10;;;;;;;7.58;100.00;100088.09;5022527;28;20103;-70
2023/10/25 00:06:05;;;;;;;7.25;4.05;;;;;;;7.56;100.00;100088.22;5005126;28;20133;-70
2023/10/25 00:08:31;;;;;;;12.77;5.40;;;;;;;7.54;100.00;100090.16;5026108;28;20485;-70
2023/10/25 00:11:01;;;;;;;10.75;5.22;;;;;;;7.46;100.00;100075.44;5027287;28;20045;-69
2023/10/25 00:13:27;;;;;;;8.60;4.25;;;;;;;7.51;100.00;100084.97;5026302;28;20033;-71
2023/10/25 00:15:52;;;;;;;12.20;4.35;;;;;;;7.50;100.00;100087.78;5010345;28;20049;-72
2023/10/25 00:18:17;;;;;;;7.90;4.57;;;;;;;7.50;100.00;100087.78;5009798;28;20036;-70
2023/10/25 00:20:43;;;;;;;9.27;4.70;;;;;;;7.45;100.00;100063.75;5025858;28;20470;-72
2023/10/25 00:23:08;;;;;;;13.35;5.72;;;;;;;7.48;100.00;100071.66;5025881;28;20482;-70
2023/10/25 00:25:33;;;;;;;17.50;4.53;;;;;;;7.45;100.00;100071.00;5024118;28;20041;-70
2023/10/25 00:27:59;;;;;;;12.73;5.70;;;;;;;7.43;100.00;100072.97;5022273;28;20482;-70
2023/10/25 00:30:24;;;;;;;15.48;5.95;;;;;;;7.39;100.00;100073.19;5020562;28;20489;-69
2023/10/25 00:32:49;;;;;;;11.32;6.03;;;;;;;7.39;100.00;100078.59;5026642;28;20091;-70
2023/10/25 00:35:15;;;;;;;12.15;5.88;;;;;;;7.38;100.00;100070.59;5024654;28;20068;-70
2023/10/25 00:37:41;;;;;;;14.27;5.85;;;;;;;7.37;100.00;100076.97;5026871;28;20086;-71
2023/10/25 00:40:07;;;;;;;15.27;6.18;;;;;;;7.32;100.00;100069.19;5027541;28;20446;-70
2023/10/25 00:42:32;;;;;;;13.32;5.38;;;;;;;7.31;100.00;100074.69;5024189;28;20041;-70
2023/10/25 00:44:58;;;;;;;16.55;6.13;;;;;;;7.32;100.00;100082.72;5029266;28;20033;-69
2023/10/25 00:47:24;;;;;;;12.63;6.03;;;;;;;7.29;100.00;100077.53;5030416;28;20040;-69
2023/10/25 00:49:50;;;;;;;9.93;5.90;;;;;;;7.27;100.00;100084.84;5024251;28;20540;-70
2023/10/25 00:52:16;;;;;;;13.80;6.20;;;;;;;7.25;100.00;100078.72;5019212;28;20120;-69
2023/10/25 00:54:42;;;;;;;14.23;5.43;;;;;;;7.23;100.00;100080.66;5024780;28;20188;-69
2023/10/25 00:57:08;;;;;;;11.18;5.50;;;;;;;7.19;100.00;100073.75;5010661;28;20061;-69
2023/10/25 00:59:35;;;;;;;9.52;4.90;;;;;;;7.16;100.00;100066.69;5020247;28;20029;-69
2023/10/25 01:02:02;;;;;;;12.55;5.28;;;;;;;7.13;100.00;100066.03;5029584;28;20473;-69
2023/10/25 01:04:29;;;;;;;8.60;4.97;;;;;;;7.15;100.00;100066.81;5028648;28;20433;-70
2023/10/25 01:06:54;;;;;;;11.65;5.10;;;;;;;7.16;100.00;100066.69;5027909;28;20053;-70
2023/10/25 01:09:20;;;;;;;6.43;4.20;;;;;;;7.16;100.00;100061.28;5023091;28;20056;-71
2023/10/25 01:11:45;;;;;;;7.72;5.15;;;;;;;7.18;100.00;100063.91;5008441;28;20030;-69
2023/10/25 01:14:11;;;;;;;6.90;4.57;;;;;;;7.18;100.00;100066.59;5009371;28;20358;-69
2023/10/25 01:16:36;;;;;;;11.70;4.80;;;;;;;7.14;100.00;100055.13;5010086;28;20032;-68
2023/10/25 01:19:02;;;;;;;9.40;4.88;;;;;;;7.13;100.00;100060.63;5016900;28;20482;-69
2023/10/25 01:21:27;;;;;;;11.18;4.78;;;;;;;7.13;100.00;100049.81;5011277;28;20041;-70
2023/10/25 01:23:53;;;;;;;8.80;4.25;;;;;;;7.12;100.00;100058.91;5029844;28;20040;-70
2023/10/25 01:26:18;;;;;;;18.80;4.43;;;;;;;7.10;100.00;100045.50;5029880;28;20072;-71
2023/10/25 01:28:44;;;;;;;10.20;4.13;;;;;;;7.10;100.00;100052.75;5029878;28;20129;-70
2023/10/25 01:31:09;;;;;;;7.25;4.47;;;;;;;7.09;100.00;100041.06;5010765;28;20037;-70
2023/10/25 01:33:34;;;;;;;16.27;3.97;;;;;;;7.11;100.00;100031.00;5008450;28;20038;-69
2023/10/25 01:36:00;;;;;;;5.18;3.97;;;;;;;7.09;100.00;100027.56;5007810;28;20045;-68
2023/10/25 01:38:25;;;;;;;6.70;3.90;;;;;;;7.13;100.00;100022.75;5010378;28;20041;-70
2023/10/25 01:40:50;;;;;;;13.95;4.18;;;;;;;7.11;100.00;100024.72;5009256;28;20034;-68
2023/10/25 01:43:16;;;;;;;12.45;4.53;;;;;;;7.10;100.00;100023.88;5008539;28;20486;-70
2023/10/25 01:45:41;;;;;;;7.30;3.58;;;;;;;7.10;100.00;100013.03;5007783;28;20413;-69
2023/10/25 01:48:06;;;;;;;7.25;3.58;;;;;;;7.11;100.00;100012.06;5025011;28;20044;-69
2023/10/25 01:50:32;;;;;;;8.90;4.05;;;;;;;7.12;100.00;100012.94;5019430;28;20076;-69
2023/10/25 01:52:57;;;;;;;5.70;3.45;;;;;;;7.12;100.00;100011.09;5012796;28;20049;-69
2023/10/25 01:55:22;;;;;;;9.68;3.97;;;;;;;7.11;100.00;100008.50;5014566;28;20139;-69
2023/10/25 01:57:48;;;;;;;11.95;3.72;;;;;;;7.08;100.00;100006.00;5009012;28;20033;-69
2023/10/25 02:00:14;;;;;;;7.47;3.85;;;;;;;7.04;100.00;99999.97;5015671;28;20128;-72
2023/10/25 02:02:39;;;;;;;9.48;3.90;;;;;;;7.04;100.00;99999.97;5008582;28;20508;-71
2023/10/25 02:05:05;;;;;;;4.47;3.20;;;;;;;7.02;100.00;99993.78;5019753;28;20167;-70
2023/10/25 02:07:30;;;;;;;8.55;3.67;;;;;;;7.05;100.00;99999.00;5007492;28;20053;-70
2023/10/25 02:09:56;;;;;;;7.35;3.25;;;;;;;7.06;100.00;99994.44;5008860;28;20034;-71
2023/10/25 02:12:21;;;;;;;7.65;3.38;;;;;;;7.10;100.00;99994.13;5008390;28;20473;-73
2023/10/25 02:14:47;;;;;;;10.35;3.80;;;;;;;7.13;100.00;99991.19;5016140;28;20037;-69
2023/10/25 02:17:12;;;;;;;8.50;3.75;;;;;;;7.16;100.00;99990.97;5027434;28;20041;-69
2023/10/25 02:19:39;;;;;;;5.68;3.40;;;;;;;7.20;100.00;99988.03;5027029;28;20025;-70
2023/10/25 02:22:05;;;;;;;6.82;4.20;;;;;;;7.20;100.00;99969.97;5026607;28;20099;-70
2023/10/25 02:24:30;;;;;;;6.25;3.38;;;;;;;7.24;100.00;99982.31;5024800;28;20038;-70
2023/10/25 02:26:56;;;;;;;9.00;3.63;;;;;;;7.26;100.00;99974.91;5008886;28;20118;-70
2023/10/25 02:29:22;;;;;;;10.98;3.80;;;;;;;7.28;100.00;99973.00;5011915;28;20532;-73
2023/10/25 02:31:47;;;;;;;10.15;3.25;;;;;;;7.29;100.00;99973.84;4993461;28;20138;-68
2023/10/25 02:34:13;;;;;;;7.63;3.50;;;;;;;7.28;100.00;99967.59;5007339;28;20073;-70
2023/10/25 02:36:38;;;;;;;3.65;2.75;;;;;;;7.31;100.00;99966.47;5006561;28;20030;-70
2023/10/25 02:39:04;;;;;;;7.03;3.40;;;;;;;7.32;100.00;99963.69;5009338;28;20030;-69
2023/10/25 02:41:29;;;;;;;5.97;3.17;;;;;;;7.33;100.00;99956.41;5008997;28;20041;-70
2023/10/25 02:43:56;;;;;;;10.10;3.63;;;;;;;7.37;100.00;99960.63;5009572;28;20038;-71
2023/10/25 02:46:22;;;;;;;6.22;2.95;;;;;;;7.41;100.00;99957.59;5028615;28;20501;-69
2023/10/25 02:48:50;;;;;;;11.40;3.25;;;;;;;7.44;100.00;99947.50;5028550;28;20121;-69
2023/10/25 02:51:15;;;;;;;10.30;3.70;;;;;;;7.43;100.00;99946.66;5027266;28;20416;-71
2023/10/25 02:53:41;;;;;;;9.02;2.80;;;;;;;7.45;100.00;99952.78;5026913;28;20044;-71
2023/10/25 02:56:07;;;;;;;7.15;3.38;;;;;;;7.41;100.00;99952.19;5027148;28;20112;-69
2023/10/25 02:58:34;;;;;;;5.90;2.70;;;;;;;7.40;100.00;99945.00;5026561;28;20382;-69
2023/10/25 03:01:00;;;;;;;8.73;3.20;;;;;;;7.38;100.00;99938.00;5011185;28;20038;-70
2023/10/25 03:03:30;;;;;;;8.18;2.92;;;;;;;7.40;100.00;99934.19;5012922;28;20021;-69
2023/10/25 03:05:56;;;;;;;6.65;2.63;;;;;;;7.39;100.00;99928.91;5025334;28;20045;-70
2023/10/25 03:08:22;;;;;;;6.10;3.00;;;;;;;7.43;100.00;99932.25;5026777;28;20481;-73
2023/10/25 03:10:47;;;;;;;11.13;3.03;;;;;;;7.43;100.00;99922.28;5027182;28;20034;-69
2023/10/25 03:13:12;;;;;;;8.90;2.75;;;;;;;7.46;100.00;99924.78;5010281;28;20037;-72
2023/10/25 03:15:38;;;;;;;7.80;2.83;;;;;;;7.47;100.00;99906.69;5009868;28;20029;-70
2023/10/25 03:18:04;;;;;;;7.18;2.75;;;;;;;7.50;100.00;99909.16;5027843;28;20068;-71
2023/10/25 03:20:29;;;;;;;7.55;4.20;;;;;;;7.53;100.00;99912.50;5025290;28;20405;-69
2023/10/25 03:22:56;;;;;;;9.60;3.67;;;;;;;7.53;100.00;99903.53;5027910;28;20076;-70
2023/10/25 03:25:21;;;;;;;7.22;3.35;;;;;;;7.56;100.00;99896.03;5028082;28;20041;-70
2023/10/25 03:27:47;;;;;;;9.75;3.83;;;;;;;7.59;100.00;99897.63;5028703;28;20036;-71
2023/10/25 03:30:12;;;;;;;9.02;3.90;;;;;;;7.60;100.00;99888.53;5017158;28;20129;-70
2023/10/25 03:32:37;;;;;;;7.78;3.67;;;;;;;7.62;100.00;99892.88;5006731;28;20530;-73
2023/10/25 03:35:04;;;;;;;7.38;3.38;;;;;;;7.63;100.00;99897.28;5007803;28;20120;-70
2023/10/25 03:37:29;;;;;;;9.43;3.95;;;;;;;7.61;100.00;99891.16;5007102;28;20041;-69
2023/10/25 03:39:55;;;;;;;4.75;3.22;;;;;;;7.64;100.00;99898.16;5016845;28;20017;-70
2023/10/25 03:42:20;;;;;;;7.15;4.05;;;;;;;7.64;100.00;99896.31;5027265;28;20575;-70
2023/10/25 03:44:45;;;;;;;7.43;3.65;;;;;;;7.67;100.00;99893.38;5021960;28;20038;-70
2023/10/25 03:47:11;;;;;;;6.35;3.20;;;;;;;7.68;100.00;99886.13;5007090;28;20034;-70
2023/10/25 03:49:36;;;;;;;6.90;3.55;;;;;;;7.65;100.00;99876.41;5022839;28;20048;-69
2023/10/25 03:52:02;;;;;;;5.60;3.28;;;;;;;7.68;100.00;99883.41;5026481;28;20096;-70
2023/10/25 03:54:28;;;;;;;9.82;4.00;;;;;;;7.67;100.00;99882.53;5026275;28;20052;-69
2023/10/25 03:56:53;;;;;;;9.50;3.67;;;;;;;7.70;100.00;99876.06;5027614;28;20033;-70
2023/10/25 03:59:18;;;;;;;9.25;3.38;;;;;;;7.70;100.00;99870.63;5026111;28;20115;-69
2023/10/25 04:01:44;;;;;;;9.48;4.55;;;;;;;7.73;100.00;99874.94;5027554;28;20036;-69
2023/10/25 04:04:11;;;;;;;8.32;4.35;;;;;;;7.73;100.00;99870.38;5025755;28;20048;-70
2023/10/25 04:06:37;;;;;;;6.53;4.07;;;;;;;7.74;100.00;99874.84;5026447;28;20077;-68
2023/10/25 04:09:02;;;;;;;5.70;3.80;;;;;;;7.74;100.00;99868.53;5020745;28;20567;-70
2023/10/25 04:11:28;;;;;;;7.05;3.40;;;;;;;7.75;100.00;99871.16;5026418;28;20034;-69
2023/10/25 04:13:53;;;;;;;7.50;3.65;;;;;;;7.77;100.00;99871.03;5025844;28;20037;-70
2023/10/25 04:16:19;;;;;;;7.88;3.60;;;;;;;7.77;100.00;99866.47;5009370;28;20397;-69
2023/10/25 04:18:44;;;;;;;11.27;3.72;;;;;;;7.77;100.00;99866.47;5014791;28;20041;-70
2023/10/25 04:21:12;;;;;;;9.43;3.72;;;;;;;7.78;100.00;99867.31;5029325;28;20565;-70
2023/10/25 04:23:38;;;;;;;8.73;3.65;;;;;;;7.80;100.00;99870.78;5026602;28;20429;-68
2023/10/25 04:26:08;;;;;;;18.15;4.75;;;;;;;7.81;100.00;99872.50;5015229;28;20041;-68
2023/10/25 04:28:34;;;;;;;7.53;3.95;;;;;;;7.80;100.00;99871.66;5027828;28;20026;-69
2023/10/25 04:31:00;;;;;;;6.22;3.58;;;;;;;7.82;100.00;99871.53;5009359;28;20038;-70
2023/10/25 04:33:26;;;;;;;7.25;4.32;;;;;;;7.83;100.00;99859.72;5010718;28;20063;-69
2023/10/25 04:35:51;;;;;;;11.65;4.03;;;;;;;7.84;100.00;99864.16;5023960;28;20481;-71
2023/10/25 04:38:16;;;;;;;11.40;4.22;;;;;;;7.86;100.00;99854.94;5030338;28;20053;-70
2023/10/25 04:40:42;;;;;;;8.65;4.47;;;;;;;7.86;100.00;99851.34;5013085;28;20041;-69
2023/10/25 04:43:07;;;;;;;12.73;4.63;;;;;;;7.87;100.00;99851.22;5013021;28;20053;-69
2023/10/25 04:45:36;;;;;;;8.10;4.68;;;;;;;7.85;100.00;99842.38;5016522;28;20095;-69
2023/10/25 04:48:01;;;;;;;12.88;5.07;;;;;;;7.89;100.00;99840.31;5011055;28;20080;-69
2023/10/25 04:50:32;;;;;;;9.07;4.60;;;;;;;7.91;100.00;99835.63;5008787;28;20814;-69
2023/10/25 04:52:58;;;;;;;6.72;4.82;;;;;;;7.90;100.00;99826.63;5027077;28;20481;-69
2023/10/25 04:55:26;;;;;;;9.15;4.82;;;;;;;7.93;100.00;99834.53;5029242;28;20073;-70
2023/10/25 04:57:51;;;;;;;9.77;4.35;;;;;;;7.92;100.00;99830.06;5030919;28;20120;-69
2023/10/25 05:00:17;;;;;;;7.25;4.05;;;;;;;7.97;100.00;99824.28;5018895;28;20048;-70
2023/10/25 05:02:42;;;;;;;8.00;3.97;;;;;;;7.98;100.00;99820.63;5010612;28;20387;-70
2023/10/25 05:05:08;;;;;;;7.88;4.15;;;;;;;8.00;100.00;99815.94;5010108;28;20033;-71
2023/10/25 05:07:35;;;;;;;12.82;4.53;;;;;;;8.03;100.00;99810.28;5010056;28;20128;-73
2023/10/25 05:10:01;;;;;;;10.73;4.18;;;;;;;8.04;100.00;99803.88;5018388;28;20566;-69
2023/10/25 05:12:38;;;;;;;9.90;4.25;;;;;;;8.04;100.00;99803.88;5029872;28;20121;-71
2023/10/25 05:15:05;;;;;;;7.68;4.10;;;;;;;8.02;100.00;99796.84;5001863;28;20038;-69
2023/10/25 05:17:31;;;;;;;17.00;4.43;;;;;;;8.04;100.00;99794.91;5010239;28;20018;-71
2023/10/25 05:19:56;;;;;;;12.95;4.00;;;;;;;8.04;100.00;99797.63;5014153;28;20088;-71
2023/10/25 05:22:27;;;;;;;7.15;3.50;;;;;;;8.00;100.00;99785.28;5009738;28;20406;-70
2023/10/25 05:24:53;;;;;;;9.13;3.70;;;;;;;8.02;100.00;99788.72;5010033;28;20037;-72
2023/10/25 05:27:19;;;;;;;7.20;3.38;;;;;;;8.00;100.00;99778.03;5028463;28;20460;-72
2023/10/25 05:29:45;;;;;;;11.85;3.67;;;;;;;8.00;100.00;99786.16;5022906;28;20125;-70
2023/10/25 05:32:14;;;;;;;12.60;4.43;;;;;;;8.00;100.00;99780.72;5009609;28;20382;-70
2023/10/25 05:34:40;;;;;;;7.05;3.65;;;;;;;8.00;100.00;99774.47;5008494;28;20041;-70
2023/10/25 05:37:06;;;;;;;8.43;3.90;;;;;;;8.00;100.00;99777.16;5008144;28;20048;-70
2023/10/25 05:39:31;;;;;;;11.05;3.38;;;;;;;7.98;100.00;99769.16;5009521;28;20447;-69
2023/10/25 05:42:03;;;;;;;10.60;4.60;;;;;;;7.98;100.00;99765.59;5008477;28;20083;-69
2023/10/25 05:44:29;;;;;;;8.27;3.50;;;;;;;7.96;100.00;99767.56;5009302;28;20034;-71
2023/10/25 05:46:54;;;;;;;15.38;5.03;;;;;;;7.96;100.00;99763.00;5024875;28;20037;-69
2023/10/25 05:49:20;;;;;;;6.00;3.60;;;;;;;7.98;100.00;99765.59;5028678;28;20076;-70
2023/10/25 05:51:45;;;;;;;7.75;4.15;;;;;;;7.97;100.00;99755.72;5018895;28;20367;-69
2023/10/25 05:54:11;;;;;;;8.20;3.85;;;;;;;8.00;100.00;99758.22;5008890;28;20756;-69
2023/10/25 05:56:37;;;;;;;10.85;3.95;;;;;;;7.99;100.00;99751.94;5013352;28;20330;-70
2023/10/25 05:59:03;;;;;;;9.77;4.00;;;;;;;7.99;100.00;99746.50;5027337;28;20030;-70
2023/10/25 06:01:50;;;;;;;8.20;3.80;;;;;;;8.00;100.00;99745.53;5023661;28;20040;-69
2023/10/25 06:04:16;;;;;;;8.65;4.20;;;;;;;7.98;100.00;99742.09;5022074;28;20132;-69
2023/10/25 06:06:43;;;;;;;6.43;3.65;;;;;;;7.98;100.00;99747.50;5028135;28;20336;-70
2023/10/25 06:09:10;;;;;;;8.82;3.90;;;;;;;7.98;100.00;99744.78;5027353;28;20048;-70
2023/10/25 06:11:39;;;;;;;9.48;3.85;;;;;;;7.99;100.00;99748.38;5027537;28;20497;-69
2023/10/25 06:14:05;;;;;;;8.32;3.83;;;;;;;7.99;100.00;99740.25;5023362;28;20049;-70
2023/10/25 06:16:31;;;;;;;9.98;3.65;;;;;;;8.01;100.00;99751.81;5027124;28;20075;-69
2023/10/25 06:18:56;;;;;;;8.05;4.25;;;;;;;8.01;100.00;99740.97;5019890;28;20034;-69
2023/10/25 06:21:22;;;;;;;5.55;3.88;;;;;;;8.04;100.00;99748.84;5008049;28;20080;-71
2023/10/25 06:23:47;;;;;;;6.55;4.30;;;;;;;8.02;100.00;99738.16;5009015;28;20045;-70
2023/10/25 06:26:12;;;;;;;6.60;3.92;;;;;;;8.04;100.00;99733.47;5007327;28;20030;-69
2023/10/25 06:28:38;;;;;;;5.25;3.38;;;;;;;8.05;100.00;99732.47;5019655;28;20041;-69
2023/10/25 06:31:03;;;;;;;8.75;4.03;;;;;;;8.06;100.00;99726.06;5027211;28;20378;-68
2023/10/25 06:33:28;;;;;;;9.60;4.05;;;;;;;8.07;100.00;99722.41;5026899;28;20037;-70
2023/10/25 06:35:59;;;;;;;8.77;3.72;;;;;;;8.12;100.00;99719.31;5027330;28;20398;-71
2023/10/25 06:38:26;;;;;;;10.15;3.78;;;;;;;8.13;100.00;99716.47;5028476;28;20122;-70
2023/10/25 06:40:51;;;;;;;5.50;3.50;;;;;;;8.14;100.00;99709.22;5028796;28;20517;-71
2023/10/25 06:43:17;;;;;;;7.95;3.80;;;;;;;8.16;100.00;99707.25;5029157;28;20060;-70
2023/10/25 06:45:45;;;;;;;5.20;3.47;;;;;;;8.15;100.00;99700.94;5013578;28;20486;-70
2023/10/25 06:48:11;;;;;;;5.47;3.33;;;;;;;8.20;100.00;99703.28;5008742;28;20041;-70
2023/10/25 06:50:36;;;;;;;14.13;3.90;;;;;;;8.22;100.00;99697.75;5007444;28;20045;-68
2023/10/25 06:53:02;;;;;;;8.30;3.25;;;;;;;8.23;100.00;99688.63;5008476;28;20100;-70
2023/10/25 06:55:28;;;;;;;5.18;3.17;;;;;;;8.26;100.00;99691.13;5006806;28;20037;-70
2023/10/25 06:57:53;;;;;;;3.72;2.75;;;;;;;8.27;100.00;99684.69;5009653;28;20084;-69
2023/10/25 07:00:19;;;;;;;3.63;2.72;;;;;;;8.30;100.00;99679.00;5018041;28;20061;-70
2023/10/25 07:02:52;;;;;;;7.68;4.22;;;;;;;8.32;100.00;99675.19;5008556;28;20076;-72
2023/10/25 07:05:23;;;;;;;8.05;3.33;;;;;;;8.35;100.00;99672.25;5006393;28;20453;-70
2023/10/25 07:07:50;;;;;;;7.55;2.67;;;;;;;8.37;100.00;99664.88;5007705;28;20037;-70
2023/10/25 07:10:16;;;;;;;7.78;3.35;;;;;;;8.40;100.00;99661.06;5025983;28;20038;-71
2023/10/25 07:12:43;;;;;;;6.30;3.10;;;;;;;8.42;100.00;99662.66;5026852;28;20382;-70
2023/10/25 07:15:10;;;;;;;5.32;2.83;;;;;;;8.46;100.00;99654.28;5021548;28;20124;-70
2023/10/25 07:17:37;;;;;;;7.20;2.50;;;;;;;8.49;100.00;99657.59;5020541;28;20030;-70
2023/10/25 07:20:03;;;;;;;6.90;3.25;;;;;;;8.50;100.00;99645.75;5005480;28;20045;-70
2023/10/25 07:22:28;;;;;;;8.38;3.00;;;;;;;8.54;100.00;99652.66;5005761;28;20042;-71
2023/10/25 07:24:55;;;;;;;7.22;3.35;;;;;;;8.56;100.00;99641.66;5008204;28;20041;-70
2023/10/25 07:27:21;;;;;;;5.53;3.08;;;;;;;8.59;100.00;99642.28;5007385;28;20081;-70
2023/10/25 07:29:47;;;;;;;11.77;3.33;;;;;;;8.59;100.00;99653.13;5008689;28;20057;-70
2023/10/25 07:32:12;;;;;;;7.53;3.28;;;;;;;8.62;100.00;99655.56;5007949;28;20106;-68
2023/10/25 07:34:38;;;;;;;7.75;2.60;;;;;;;8.62;100.00;99650.13;5006520;28;20038;-70
2023/10/25 07:37:04;;;;;;;7.50;3.40;;;;;;;8.65;100.00;99646.31;4989123;28;20025;-69
2023/10/25 07:39:29;;;;;;;5.45;3.15;;;;;;;8.62;100.00;99639.28;5007957;28;20034;-69
2023/10/25 07:41:55;;;;;;;6.50;3.58;;;;;;;8.67;100.00;99644.34;5009832;28;20037;-69
2023/10/25 07:44:20;;;;;;;7.90;3.53;;;;;;;8.67;100.00;99634.38;5025468;28;20057;-70
2023/10/25 07:46:45;;;;;;;6.18;3.70;;;;;;;8.67;100.00;99631.66;5007811;28;20049;-70
2023/10/25 07:49:11;;;;;;;6.97;3.17;;;;;;;8.71;100.00;99625.97;5016465;28;20120;-70
2023/10/25 07:51:36;;;;;;;5.45;3.17;;;;;;;8.71;100.00;99615.97;5026397;28;20069;-69
2023/10/25 07:54:02;;;;;;;3.90;3.17;;;;;;;8.75;100.00;99617.44;5029333;28;20041;-69
2023/10/25 07:56:28;;;;;;;5.75;3.50;;;;;;;8.79;100.00;99618.91;5030235;28;20029;-70
2023/10/25 07:58:54;;;;;;;7.10;3.10;;;;;;;8.84;100.00;99613.09;5031242;28;20540;-70
2023/10/25 08:01:19;;;;;;;7.70;3.30;;;;;;;8.89;100.00;99600.00;5030597;28;20033;-70
2023/10/25 08:03:44;;;;;;;8.35;4.05;;;;;;;8.93;100.00;99590.59;5031290;28;20053;-69
2023/10/25 08:06:10;;;;;;;6.97;3.83;;;;;;;8.98;100.00;99590.22;5030505;28;20382;-71
2023/10/25 08:08:35;;;;;;;6.53;3.22;;;;;;;9.00;100.00;99580.97;5031159;28;20543;-70
2023/10/25 08:11:02;;;;;;;7.90;4.00;;;;;;;9.06;100.00;99583.13;5031481;28;20140;-69
2023/10/25 08:13:28;;;;;;;7.03;3.70;;;;;;;9.11;100.00;99580.88;5030861;28;20033;-69
2023/10/25 08:16:01;;;;;;;8.65;3.60;;;;;;;9.14;100.00;99585.19;5014681;28;20030;-71
2023/10/25 08:18:29;;;;;;;10.18;3.67;;;;;;;9.15;100.00;99581.50;5013390;28;20036;-72
2023/10/25 08:20:55;;;;;;;4.32;3.42;;;;;;;9.14;100.00;99572.50;5028762;28;20049;-70
2023/10/25 08:23:21;;;;;;;6.90;3.60;;;;;;;9.18;100.00;99575.78;5031861;28;20044;-71
2023/10/25 08:25:46;;;;;;;4.82;3.40;;;;;;;9.20;100.00;99565.66;5013103;28;20017;-70
2023/10/25 08:28:12;;;;;;;9.00;3.60;;;;;;;9.23;100.00;99568.09;5029607;28;20132;-69
2023/10/25 08:30:37;;;;;;;9.65;3.80;;;;;;;9.28;100.00;99564.97;5014249;28;20028;-71
2023/10/25 08:33:03;;;;;;;8.15;3.85;;;;;;;9.33;100.00;99566.31;5011289;28;20482;-71
2023/10/25 08:35:28;;;;;;;9.80;3.35;;;;;;;9.36;100.00;99567.88;5010239;28;20504;-69
2023/10/25 08:37:53;;;;;;;4.72;2.92;;;;;;;9.36;100.00;99557.03;5010234;28;20464;-70
2023/10/25 08:40:19;;;;;;;5.93;3.20;;;;;;;9.40;100.00;99556.63;5010186;28;20537;-71
2023/10/25 08:42:45;;;;;;;13.60;4.95;;;;;;;9.39;100.00;99548.63;5010998;28;20100;-71
2023/10/25 08:45:10;;;;;;;7.03;3.55;;;;;;;9.40;100.00;99534.03;5028816;28;20021;-70
2023/10/25 08:47:36;;;;;;;5.53;3.28;;;;;;;9.41;100.00;99531.19;5030691;28;20048;-69
2023/10/25 08:50:05;;;;;;;6.60;3.13;;;;;;;9.41;100.00;99531.19;5019400;28;20026;-70
2023/10/25 08:52:31;;;;;;;6.03;2.90;;;;;;;9.40;100.00;99532.19;5022990;28;20391;-70
2023/10/25 08:54:56;;;;;;;6.30;3.40;;;;;;;9.40;100.00;99526.75;5030536;28;20046;-70
2023/10/25 08:57:22;;;;;;;4.68;3.22;;;;;;;9.41;100.00;99524.91;5029536;28;20071;-75
2023/10/25 08:59:48;;;;;;;11.77;3.17;;;;;;;9.43;100.00;99521.06;5013408;28;20026;-71
2023/10/25 09:02:13;;;;;;;8.98;3.05;;;;;;;9.43;100.00;99521.06;5030940;28;20036;-71
2023/10/25 09:05:06;;;;;;;7.18;3.67;;;;;;;9.42;100.00;99521.22;5028634;28;20041;-70
2023/10/25 09:07:34;;;;;;;6.70;3.50;;;;;;;9.42;100.00;99508.50;5029809;28;20076;-69
2023/10/25 09:10:01;;;;;;;10.18;4.50;;;;;;;9.37;100.00;99505.34;5029059;28;20037;-70
2023/10/25 09:12:27;;;;;;;5.72;3.38;;;;;;;9.38;100.00;99506.19;5028951;28;20128;-69
2023/10/25 09:14:52;;;;;;;10.13;4.28;;;;;;;9.38;100.00;99503.47;5018399;28;20553;-71
2023/10/25 09:17:18;;;;;;;6.53;3.80;;;;;;;9.36;100.00;99503.59;5014767;28;20053;-70
2023/10/25 09:19:45;;;;;;;10.25;4.15;;;;;;;9.36;100.00;99500.03;5029492;28;20124;-70
2023/10/25 09:22:30;;;;;;;8.20;3.45;;;;;;;9.35;100.00;99492.88;5029144;28;20046;-70
2023/10/25 09:25:01;;;;;;;8.32;4.50;;;;;;;9.33;100.00;99490.31;5028560;28;20067;-70
2023/10/25 09:27:27;;;;;;;9.02;3.85;;;;;;;9.32;100.00;99480.44;5030040;28;20080;-74
2023/10/25 09:29:54;;;;;;;8.05;4.50;;;;;;;9.33;100.00;99481.31;5011908;28;20026;-71
2023/10/25 09:32:21;;;;;;;8.00;4.18;;;;;;;9.35;100.00;99492.88;5030355;28;20041;-69
2023/10/25 09:34:48;;;;;;;9.55;4.40;;;;;;;9.34;100.00;99491.19;5029779;28;20041;-70
2023/10/25 09:37:14;;;;;;;8.80;4.35;;;;;;;9.34;100.00;99489.31;5028945;28;20536;-70
2023/10/25 09:39:40;;;;;;;6.45;4.57;;;;;;;9.35;100.00;99482.88;5029707;28;20033;-74
2023/10/25 09:42:15;;;;;;;8.90;4.88;;;;;;;9.35;100.00;99480.16;5029545;28;20040;-70
2023/10/25 09:44:47;;;;;;;5.07;4.32;;;;;;;9.35;100.00;99474.75;5027934;28;20030;-70
2023/10/25 09:47:16;;;;;;;8.68;5.35;;;;;;;9.35;100.00;99466.59;5028206;28;20529;-71
2023/10/25 09:49:44;;;;;;;11.35;5.82;;;;;;;9.33;100.00;99460.47;5029457;28;20469;-70
2023/10/25 09:52:18;;;;;;;9.25;5.18;;;;;;;9.30;100.00;99449.03;5018119;28;20436;-70
2023/10/25 09:54:51;;;;;;;10.73;5.50;;;;;;;9.27;100.00;99446.56;5009548;28;20049;-71
2023/10/25 09:57:18;;;;;;;9.30;5.93;;;;;;;9.28;100.00;99443.75;4992381;28;20036;-74
2023/10/25 09:59:45;;;;;;;10.48;5.47;;;;;;;9.29;100.00;99434.59;5018793;28;20037;-71
2023/10/25 10:02:23;;;;;;;11.32;5.90;;;;;;;9.27;100.00;99433.84;5029106;28;20440;-70
2023/10/25 10:05:01;;;;;;;9.18;5.80;;;;;;;9.27;100.00;99438.44;5029370;28;20115;-70
2023/10/25 10:08:05;;;;;;;8.55;5.70;;;;;;;9.26;100.00;99431.28;5007102;28;20077;-70
2023/10/25 10:10:43;;;;;;;11.25;6.10;;;;;;;9.24;100.00;99427.88;4987875;28;20061;-71
2023/10/25 10:13:20;;;;;;;11.75;6.43;;;;;;;9.23;100.00;99423.41;5009425;28;20441;-71
2023/10/25 10:15:54;;;;;;;11.27;5.55;;;;;;;9.23;100.00;99423.41;5021632;28;20037;-70
2023/10/25 10:18:20;;;;;;;14.80;6.43;;;;;;;9.23;100.00;99407.13;5023533;28;20041;-71
2023/10/25 10:20:58;;;;;;;9.40;5.80;;;;;;;9.22;100.00;99403.56;5012878;28;20025;-71
2023/10/25 10:23:34;;;;;;;9.38;6.22;;;;;;;9.24;100.00;99388.03;5027439;28;20072;-70
2023/10/25 10:26:01;;;;;;;14.93;6.28;;;;;;;9.24;100.00;99376.31;5028145;28;20034;-71
2023/10/25 10:28:41;;;;;;;10.73;6.35;;;;;;;9.23;100.00;99377.28;5028519;28;20080;-70
2023/10/25 10:31:08;;;;;;;9.10;6.05;;;;;;;9.26;100.00;99377.00;5028520;28;20041;-71
2023/10/25 10:33:40;;;;;;;10.52;6.32;;;;;;;9.25;100.00;99359.88;5026843;28;20080;-72
2023/10/25 10:36:07;;;;;;;7.93;5.22;;;;;;;9.26;100.00;99358.88;5026320;28;20041;-71
2023/10/25 10:39:10;;;;;;;10.15;5.70;;;;;;;9.29;100.00;99353.19;5027096;28;20117;-73
2023/10/25 10:41:36;;;;;;;12.43;5.85;;;;;;;9.30;100.00;99354.88;5023798;28;20029;-74
2023/10/25 10:44:01;;;;;;;10.55;5.70;;;;;;;9.30;100.00;99346.75;5008600;28;20445;-71
2023/10/25 10:46:30;;;;;;;9.68;6.57;;;;;;;9.30;100.00;99345.91;5009120;28;20041;-70
2023/10/25 10:49:00;;;;;;;9.65;5.60;;;;;;;9.33;100.00;99338.34;5007995;28;20033;-70
2023/10/25 10:51:27;;;;;;;11.05;5.28;;;;;;;9.33;100.00;99343.75;5010849;28;20041;-70
2023/10/25 10:53:53;;;;;;;9.77;5.85;;;;;;;9.34;100.00;99333.75;5027083;28;20049;-74
2023/10/25 10:56:19;;;;;;;9.93;5.43;;;;;;;9.35;100.00;99328.19;5028826;28;20477;-71
2023/10/25 10:58:45;;;;;;;13.27;5.90;;;;;;;9.36;100.00;99327.19;5028501;28;20150;-70
2023/10/25 11:01:10;;;;;;;11.32;6.13;;;;;;;9.35;100.00;99308.34;5017215;28;20041;-71
2023/10/25 11:03:40;;;;;;;7.75;5.70;;;;;;;9.39;100.00;99301.63;5028121;28;20429;-70
2023/10/25 11:06:05;;;;;;;10.93;6.15;;;;;;;9.40;100.00;99297.91;5025758;28;20409;-70
2023/10/25 11:08:35;;;;;;;8.65;5.85;;;;;;;9.40;100.00;99298.75;5012981;28;20037;-71
2023/10/25 11:11:00;;;;;;;9.43;5.80;;;;;;;9.44;100.00;99288.47;5007300;28;20046;-70
2023/10/25 11:13:28;;;;;;;11.50;6.00;;;;;;;9.44;100.00;99286.63;5025676;28;20378;-71
2023/10/25 11:16:08;;;;;;;12.07;5.82;;;;;;;9.45;100.00;99287.47;5014071;28;20482;-71
2023/10/25 11:18:34;;;;;;;10.52;5.35;;;;;;;9.48;100.00;99287.19;5006468;28;20061;-71
2023/10/25 11:21:00;;;;;;;10.93;5.72;;;;;;;9.46;100.00;99267.47;5012834;28;20084;-70
2023/10/25 11:23:25;;;;;;;8.25;4.80;;;;;;;9.50;100.00;99268.03;5027773;28;20048;-70
2023/10/25 11:25:51;;;;;;;8.23;5.15;;;;;;;9.49;100.00;99269.91;5028176;28;20295;-71
2023/10/25 11:28:18;;;;;;;8.77;5.30;;;;;;;9.49;100.00;99266.34;5026301;28;20400;-72